Weather at Arad Airport

Public forecast

Using degrees Celsius for public forecast. Weather courtesy of forecast.io.

Closest aviation weather report (METAR) to Arad Airport

Closest report is Ben Gurion International Airport, 49.4 nm (91.6 km) NNW.

2024/05/30 15:50 (retrieved 25 minutes ago)

LLBG 301550Z 31010KT 9999 FEW032 24/15 Q1013 NOSIG

Closest aviation forecast (TAF) to Arad Airport

Closest forecast is Ben Gurion International Airport, 49.4 nm (91.6 km) NNW.

2024/05/30 12:06 (retrieved 4 hours ago)

TAF TAF LLBG 301100Z 3012/3112 30012KT 9999 FEW035 BECMG 3015/3017 36005KT FEW020 BECMG 3019/3021 VRB03KT PROB30 3100/3105 15005KT BKN015 BECMG 3107/3109 29010KT CAVOK TX26/3012Z TN18/3103Z